createdAt,value
2022-12-19T00:00:14.731Z,74.46
2022-12-19T00:05:22.332Z,74.63
2022-12-19T00:10:28.569Z,75.37
2022-12-19T00:15:35.393Z,74.87
2022-12-19T00:20:40.764Z,75.42
2022-12-19T00:25:47.876Z,76.22
2022-12-19T00:30:53.978Z,75.63
2022-12-19T00:36:03.684Z,74.39
2022-12-19T00:41:10.028Z,74.62
2022-12-19T00:46:16.873Z,73.31
2022-12-19T00:51:24.229Z,73.84
2022-12-19T00:56:30.374Z,73.63
2022-12-19T01:01:37.099Z,73.46
2022-12-19T01:06:44.119Z,73.94
2022-12-19T01:12:05.510Z,73.72
2022-12-19T01:17:09.668Z,75.04
2022-12-19T01:22:15.760Z,74.37
2022-12-19T01:27:19.980Z,74.88
2022-12-19T01:32:25.147Z,75.44
2022-12-19T01:37:30.763Z,76.52
2022-12-19T01:42:37.209Z,76.30
2022-12-19T01:47:48.342Z,76.53
2022-12-19T01:52:58.952Z,76.65
2022-12-19T01:58:04.324Z,76.58
2022-12-19T02:03:13.209Z,76.61
2022-12-19T02:08:25.044Z,76.70
2022-12-19T02:13:30.534Z,75.03
2022-12-19T02:18:42.793Z,75.77
2022-12-19T02:24:21.028Z,75.96
2022-12-19T02:29:57.705Z,76.47
2022-12-19T02:35:09.651Z,76.32
2022-12-19T02:40:20.245Z,76.39
2022-12-19T02:45:28.871Z,76.81
2022-12-19T02:50:43.938Z,76.78
2022-12-19T02:56:00.853Z,76.56
2022-12-19T03:01:18.633Z,78.65
2022-12-19T03:06:35.941Z,79.14
2022-12-19T03:11:43.181Z,78.52
2022-12-19T03:16:47.592Z,77.83
2022-12-19T03:21:53.783Z,77.09
2022-12-19T03:27:03.469Z,76.00
2022-12-19T03:32:14.200Z,75.73
2022-12-19T03:37:23.463Z,76.16
2022-12-19T03:42:48.731Z,76.69
2022-12-19T03:47:58.753Z,75.94
2022-12-19T03:53:16.977Z,76.46
2022-12-19T03:58:29.100Z,76.36
2022-12-19T04:03:34.007Z,76.19
2022-12-19T04:08:40.012Z,77.20
2022-12-19T04:13:51.093Z,77.37
2022-12-19T04:19:03.478Z,76.78
2022-12-19T04:24:13.824Z,77.28
2022-12-19T04:29:21.240Z,77.17
2022-12-19T04:34:25.491Z,76.26
2022-12-19T04:39:31.197Z,76.06
2022-12-19T04:44:36.132Z,76.25
2022-12-19T04:49:42.476Z,75.80
2022-12-19T04:54:48.053Z,75.91
2022-12-19T04:59:52.260Z,76.19
2022-12-19T05:04:56.275Z,75.83
2022-12-19T05:10:01.921Z,75.02
2022-12-19T05:15:07.156Z,75.27
2022-12-19T05:20:12.075Z,76.24
2022-12-19T05:25:17.818Z,75.91
2022-12-19T05:30:24.471Z,75.60
2022-12-19T05:35:28.697Z,77.31
2022-12-19T05:40:34.705Z,77.33
2022-12-19T05:45:40.825Z,78.47
2022-12-19T05:50:49.271Z,79.78
2022-12-19T05:55:56.343Z,80.39
2022-12-19T06:01:03.895Z,79.66
2022-12-19T06:06:11.280Z,79.42
2022-12-19T06:11:19.593Z,79.67
2022-12-19T06:16:25.388Z,80.02
2022-12-19T06:21:30.349Z,79.87
2022-12-19T06:26:35.895Z,79.40
2022-12-19T06:31:40.047Z,78.88
2022-12-19T06:36:44.845Z,78.88
2022-12-19T06:42:07.589Z,79.98
2022-12-19T06:47:11.847Z,78.36
2022-12-19T06:52:16.117Z,76.44
2022-12-19T06:57:22.128Z,76.91
2022-12-19T07:02:30.884Z,77.14
2022-12-19T07:07:35.048Z,76.42
2022-12-19T07:12:42.983Z,77.25
2022-12-19T07:17:49.632Z,77.26
2022-12-19T07:22:54.052Z,77.08
2022-12-19T07:28:00.170Z,76.05
2022-12-19T07:33:04.404Z,76.69
2022-12-19T07:38:09.100Z,76.98
2022-12-19T07:43:17.349Z,76.98
2022-12-19T07:48:21.894Z,76.98
2022-12-19T07:53:26.336Z,76.64
2022-12-19T07:58:32.376Z,77.47
2022-12-19T08:03:37.108Z,78.80
2022-12-19T08:08:41.357Z,78.25
2022-12-19T08:13:49.463Z,76.94
2022-12-19T08:18:57.603Z,77.08
2022-12-19T08:24:01.994Z,76.38
2022-12-19T08:29:08.219Z,76.26
2022-12-19T08:34:12.535Z,77.13
2022-12-19T08:39:17.286Z,77.08
2022-12-19T08:44:25.597Z,76.01
2022-12-19T08:49:29.907Z,76.46
2022-12-19T08:54:34.408Z,77.76
2022-12-19T08:59:42.082Z,79.04
2022-12-19T09:05:57.447Z,79.08
2022-12-19T09:10:12.374Z,78.81
2022-12-19T09:15:18.285Z,77.43
2022-12-19T09:20:23.574Z,79.40
2022-12-19T09:25:28.138Z,80.11
2022-12-19T09:30:33.751Z,81.80
2022-12-19T09:35:40.634Z,81.48
2022-12-19T09:40:55.867Z,81.88
2022-12-19T09:46:11.557Z,82.27
2022-12-19T09:51:21.964Z,80.64
2022-12-19T09:56:33.077Z,79.14
2022-12-19T10:01:58.201Z,79.63
2022-12-19T10:07:21.956Z,78.72
2022-12-19T10:12:52.940Z,78.18
2022-12-19T10:18:15.860Z,78.08
2022-12-19T10:23:41.302Z,78.79
2022-12-19T10:28:58.333Z,78.00
2022-12-19T10:34:15.383Z,79.25
2022-12-19T10:39:30.214Z,79.73
2022-12-19T10:44:39.949Z,79.79
2022-12-19T10:49:45.664Z,80.12
2022-12-19T10:54:50.626Z,79.89
2022-12-19T10:59:59.987Z,78.62
2022-12-19T11:05:17.336Z,78.77
2022-12-19T11:11:16.549Z,78.21
2022-12-19T11:22:09.572Z,78.94
2022-12-19T11:28:34.500Z,78.16
2022-12-19T11:29:31.094Z,79.04
2022-12-19T11:32:40.278Z,79.23
2022-12-19T11:37:55.846Z,78.73
2022-12-19T11:43:43.084Z,78.61
2022-12-19T11:48:40.195Z,78.00
2022-12-19T11:53:58.514Z,79.08
2022-12-19T11:59:09.226Z,78.33
2022-12-19T12:04:49.410Z,78.43
2022-12-19T12:15:24.368Z,78.67
2022-12-19T12:27:45.602Z,79.32
2022-12-19T12:31:40.036Z,79.66
2022-12-19T12:31:45.689Z,80.08
2022-12-19T12:35:56.812Z,79.87
2022-12-19T12:38:25.006Z,78.83
2022-12-19T12:43:54.545Z,78.18
2022-12-19T12:49:03.047Z,79.05
2022-12-19T12:54:09.916Z,78.75
2022-12-19T12:59:26.069Z,78.55
2022-12-19T13:04:35.349Z,77.73
2022-12-19T13:09:39.726Z,77.76
2022-12-19T13:14:51.032Z,78.54
2022-12-19T13:19:57.267Z,78.19
2022-12-19T13:25:02.713Z,78.16
2022-12-19T13:30:19.959Z,78.33
2022-12-19T13:37:09.849Z,78.05
2022-12-19T13:41:01.907Z,78.09
2022-12-19T13:46:20.096Z,78.39
2022-12-19T13:51:24.442Z,78.55
2022-12-19T13:56:31.972Z,78.97
2022-12-19T14:01:39.245Z,78.48
2022-12-19T14:06:46.234Z,78.75
2022-12-19T14:13:44.201Z,79.57
2022-12-19T14:17:18.802Z,79.14
2022-12-19T14:22:26.972Z,79.24
2022-12-19T14:28:26.363Z,80.33
2022-12-19T14:33:46.085Z,81.03
2022-12-19T14:39:22.086Z,80.92
2022-12-19T14:54:05.224Z,81.10
2022-12-19T14:54:10.513Z,81.12
2022-12-19T14:56:16.053Z,80.82
2022-12-19T15:01:08.448Z,80.97
2022-12-19T15:06:19.774Z,81.31
2022-12-19T15:12:10.171Z,81.19
2022-12-19T15:17:28.574Z,80.51
2022-12-19T15:22:42.707Z,79.27
2022-12-19T15:27:48.165Z,79.03
2022-12-19T15:32:55.378Z,77.13
2022-12-19T15:38:02.834Z,77.24
2022-12-19T15:43:23.760Z,77.83
2022-12-19T15:48:41.852Z,78.18
2022-12-19T15:53:47.963Z,78.29
2022-12-19T15:58:54.022Z,77.62
2022-12-19T16:04:00.701Z,78.69
2022-12-19T16:09:18.524Z,78.64
2022-12-19T16:14:26.511Z,79.65
2022-12-19T16:19:33.244Z,79.25
2022-12-19T16:24:38.741Z,79.01
2022-12-19T16:29:46.176Z,79.00
2022-12-19T16:34:51.677Z,79.34
2022-12-19T16:39:57.417Z,78.47
2022-12-19T16:45:04.092Z,79.09
2022-12-19T16:50:16.476Z,78.21
2022-12-19T16:55:22.591Z,77.88
2022-12-19T17:00:27.782Z,77.60
2022-12-19T17:05:34.285Z,76.52
2022-12-19T17:10:45.264Z,77.28
2022-12-19T17:15:56.350Z,77.97
2022-12-19T17:21:03.339Z,78.90
2022-12-19T17:26:12.701Z,77.89
2022-12-19T17:31:25.213Z,77.86
2022-12-19T17:36:37.505Z,78.87
2022-12-19T17:41:43.636Z,78.47
2022-12-19T17:46:50.696Z,79.16
2022-12-19T17:51:56.676Z,78.90
2022-12-19T17:57:03.130Z,80.78
2022-12-19T18:02:20.610Z,79.89
2022-12-19T18:07:24.979Z,79.37
2022-12-19T18:12:31.771Z,78.96
2022-12-19T18:17:37.631Z,78.49
2022-12-19T18:22:45.196Z,76.85
2022-12-19T18:27:51.651Z,76.85
2022-12-19T18:32:58.931Z,76.59
2022-12-19T18:38:07.128Z,75.72
2022-12-19T18:43:13.578Z,74.54
2022-12-19T18:48:30.278Z,74.22
2022-12-19T18:53:36.527Z,73.57
2022-12-19T18:58:42.940Z,73.13
2022-12-19T19:03:53.706Z,72.06
2022-12-19T19:08:58.656Z,71.43
2022-12-19T19:14:36.356Z,71.30
2022-12-19T19:19:43.724Z,72.45
2022-12-19T19:24:47.755Z,71.78
2022-12-19T19:29:53.226Z,72.37
2022-12-19T19:34:57.585Z,72.89
2022-12-19T19:40:01.838Z,72.39
2022-12-19T19:45:09.725Z,72.62
2022-12-19T19:50:14.210Z,71.32
2022-12-19T19:55:19.144Z,71.77
2022-12-19T20:00:25.497Z,71.10
2022-12-19T20:05:30.167Z,71.76
2022-12-19T20:10:34.741Z,73.21
2022-12-19T20:15:46.005Z,73.30
2022-12-19T20:20:54.267Z,73.92
2022-12-19T20:26:01.913Z,74.05
2022-12-19T20:31:07.872Z,74.10
2022-12-19T20:36:13.760Z,74.10
2022-12-19T20:41:21.277Z,73.79
2022-12-19T20:46:26.861Z,74.28
2022-12-19T20:51:32.145Z,75.65
2022-12-19T20:56:37.542Z,78.24
2022-12-19T21:01:44.317Z,79.60
2022-12-19T21:06:48.679Z,78.74
2022-12-19T21:11:52.937Z,78.43
2022-12-19T21:17:01.487Z,79.43
2022-12-19T21:22:07.185Z,79.93
2022-12-19T21:27:11.679Z,81.22
2022-12-19T21:32:20.335Z,81.18
2022-12-19T21:37:25.591Z,81.04
2022-12-19T21:42:30.281Z,81.75
2022-12-19T21:47:39.536Z,81.61
2022-12-19T21:52:43.342Z,81.78
2022-12-19T21:57:48.695Z,80.89
2022-12-19T22:03:16.215Z,80.52
2022-12-19T22:08:19.862Z,80.58
2022-12-19T22:13:24.547Z,80.79
2022-12-19T22:18:31.644Z,81.18
2022-12-19T22:23:35.951Z,81.26
2022-12-19T22:28:41.826Z,79.99
2022-12-19T22:33:48.234Z,80.56
2022-12-19T22:38:52.674Z,80.77
2022-12-19T22:43:57.547Z,80.87
2022-12-19T22:49:08.871Z,80.95
2022-12-19T22:54:14.213Z,80.59
2022-12-19T22:59:18.269Z,81.74
2022-12-19T23:04:24.101Z,81.73
2022-12-19T23:14:32.650Z,81.71
2022-12-19T23:19:38.188Z,81.08
2022-12-19T23:24:42.236Z,80.36
2022-12-19T23:29:47.451Z,80.11
2022-12-19T23:34:54.528Z,80.45
2022-12-19T23:39:58.572Z,78.90
2022-12-19T23:45:03.023Z,77.73
2022-12-19T23:50:10.120Z,76.77
2022-12-19T23:55:14.094Z,76.33
